createdAt,value
2022-08-02T00:00:29.397Z,98504.13
2022-08-02T00:02:56.348Z,98507.47
2022-08-02T00:05:23.482Z,98504.66
2022-08-02T00:07:50.863Z,98495.94
2022-08-02T00:10:18.276Z,98493.78
2022-08-02T00:12:45.290Z,98488.25
2022-08-02T00:15:16.336Z,98487.13
2022-08-02T00:17:44.713Z,98486.13
2022-08-02T00:20:13.591Z,98495.69
2022-08-02T00:22:40.634Z,98499.81
2022-08-02T00:25:08.025Z,98507.47
2022-08-02T00:27:35.163Z,98511.47
2022-08-02T00:30:02.209Z,98509.97
2022-08-02T00:32:29.283Z,98512.81
2022-08-02T00:34:56.274Z,98510.41
2022-08-02T00:37:23.253Z,98512.63
2022-08-02T00:39:50.297Z,98508.75
2022-08-02T00:42:17.440Z,98519.72
2022-08-02T00:44:44.703Z,98510.53
2022-08-02T00:47:19.011Z,98516.97
2022-08-02T00:49:47.182Z,98515.84
2022-08-02T00:52:14.983Z,98514.59
2022-08-02T00:54:42.555Z,98509.06
2022-08-02T00:57:09.683Z,98513.91
2022-08-02T00:59:36.820Z,98515.00
2022-08-02T01:02:04.036Z,98522.69
2022-08-02T01:04:32.294Z,98517.00
2022-08-02T01:07:01.390Z,98525.47
2022-08-02T01:09:28.579Z,98522.44
2022-08-02T01:11:55.858Z,98523.31
2022-08-02T01:14:24.986Z,98532.03
2022-08-02T01:17:19.673Z,98526.34
2022-08-02T01:20:15.789Z,98524.94
2022-08-02T01:23:29.001Z,98526.13
2022-08-02T01:26:44.277Z,98527.31
2022-08-02T01:29:34.613Z,98539.44
2022-08-02T01:32:12.341Z,98532.78
2022-08-02T01:35:01.913Z,98537.09
2022-08-02T01:37:33.527Z,98539.81
2022-08-02T01:40:10.673Z,98541.00
2022-08-02T01:42:42.191Z,98541.63
2022-08-02T01:45:12.650Z,98546.00
2022-08-02T01:47:41.532Z,98542.44
2022-08-02T01:50:13.468Z,98542.63
2022-08-02T01:52:53.114Z,98541.88
2022-08-02T01:55:33.447Z,98548.75
2022-08-02T01:58:05.464Z,98545.69
2022-08-02T02:00:38.965Z,98544.53
2022-08-02T02:03:13.946Z,98543.13
2022-08-02T02:05:42.269Z,98540.91
2022-08-02T02:08:10.738Z,98546.44
2022-08-02T02:10:40.227Z,98554.91
2022-08-02T02:13:17.540Z,98549.84
2022-08-02T02:15:48.554Z,98550.78
2022-08-02T02:18:23.293Z,98550.78
2022-08-02T02:20:51.529Z,98554.28
2022-08-02T02:23:19.210Z,98543.06
2022-08-02T02:25:55.874Z,98543.03
2022-08-02T02:28:36.036Z,98541.59
2022-08-02T02:31:13.873Z,98543.16
2022-08-02T02:33:50.510Z,98539.06
2022-08-02T02:36:19.421Z,98535.97
2022-08-02T02:38:48.734Z,98537.00
2022-08-02T02:41:18.992Z,98531.41
2022-08-02T02:43:47.552Z,98534.25
2022-08-02T02:46:17.470Z,98539.22
2022-08-02T02:48:44.885Z,98536.88
2022-08-02T02:51:13.940Z,98533.91
2022-08-02T02:54:32.389Z,98534.31
2022-08-02T02:56:31.226Z,98538.06
2022-08-02T02:59:00.673Z,98531.22
2022-08-02T03:01:55.353Z,98532.34
2022-08-02T03:04:16.169Z,98532.50
2022-08-02T03:06:43.353Z,98532.59
2022-08-02T03:09:11.594Z,98533.47
2022-08-02T03:11:39.310Z,98525.22
2022-08-02T03:14:11.801Z,98525.69
2022-08-02T03:16:52.526Z,98523.44
2022-08-02T03:19:21.916Z,98516.72
2022-08-02T03:22:07.459Z,98512.97
2022-08-02T03:24:34.520Z,98511.97
2022-08-02T03:27:02.741Z,98512.91
2022-08-02T03:29:34.647Z,98519.53
2022-08-02T03:32:02.102Z,98517.63
2022-08-02T03:34:29.555Z,98514.66
2022-08-02T03:36:58.140Z,98518.69
2022-08-02T03:39:26.676Z,98525.59
2022-08-02T03:41:54.862Z,98530.19
2022-08-02T03:44:23.042Z,98528.50
2022-08-02T03:46:51.046Z,98529.19
2022-08-02T03:49:18.566Z,98531.56
2022-08-02T03:51:46.675Z,98530.97
2022-08-02T03:54:14.466Z,98537.44
2022-08-02T03:56:41.710Z,98540.69
2022-08-02T03:59:14.339Z,98548.06
2022-08-02T04:01:42.026Z,98538.72
2022-08-02T04:04:09.531Z,98532.47
2022-08-02T04:06:39.959Z,98544.88
2022-08-02T04:09:07.316Z,98539.81
2022-08-02T04:11:34.481Z,98548.41
2022-08-02T04:14:07.757Z,98555.72
2022-08-02T04:16:50.753Z,98559.09
2022-08-02T04:19:42.813Z,98567.38
2022-08-02T04:22:17.359Z,98578.44
2022-08-02T04:24:51.077Z,98584.28
2022-08-02T04:28:15.252Z,98575.28
2022-08-02T04:30:08.371Z,98583.84
2022-08-02T04:32:36.111Z,98588.50
2022-08-02T04:35:20.238Z,98592.19
2022-08-02T04:38:08.310Z,98595.09
2022-08-02T04:40:36.193Z,98597.47
2022-08-02T04:43:03.237Z,98599.38
2022-08-02T04:45:31.029Z,98596.53
2022-08-02T04:48:06.135Z,98605.91
2022-08-02T04:50:34.576Z,98599.97
2022-08-02T04:53:02.015Z,98599.09
2022-08-02T04:55:29.884Z,98598.69
2022-08-02T04:57:58.535Z,98585.28
2022-08-02T05:00:28.089Z,98584.75
2022-08-02T05:02:59.891Z,98581.16
2022-08-02T05:05:27.600Z,98577.84
2022-08-02T05:07:55.002Z,98584.31
2022-08-02T05:10:22.635Z,98583.50
2022-08-02T05:12:50.389Z,98586.84
2022-08-02T05:15:18.646Z,98585.06
2022-08-02T05:17:48.715Z,98575.44
2022-08-02T05:20:19.714Z,98577.00
2022-08-02T05:22:47.098Z,98573.34
2022-08-02T05:25:14.582Z,98576.09
2022-08-02T05:27:41.676Z,98565.69
2022-08-02T05:30:09.918Z,98575.88
2022-08-02T05:32:44.487Z,98569.06
2022-08-02T05:35:11.938Z,98562.81
2022-08-02T05:37:39.446Z,98556.38
2022-08-02T05:40:12.757Z,98562.19
2022-08-02T05:42:41.317Z,98560.56
2022-08-02T05:45:09.287Z,98548.63
2022-08-02T05:47:37.089Z,98543.44
2022-08-02T05:50:08.918Z,98543.69
2022-08-02T05:52:57.324Z,98560.63
2022-08-02T05:55:35.612Z,98566.22
2022-08-02T05:58:04.945Z,98569.25
2022-08-02T06:00:35.315Z,98572.00
2022-08-02T06:03:16.663Z,98569.31
2022-08-02T06:06:05.177Z,98574.41
2022-08-02T06:08:47.532Z,98573.13
2022-08-02T06:11:21.968Z,98576.56
2022-08-02T06:13:49.918Z,98572.69
2022-08-02T06:16:18.052Z,98578.66
2022-08-02T06:19:00.623Z,98579.41
2022-08-02T06:22:31.599Z,98581.09
2022-08-02T06:24:19.603Z,98569.97
2022-08-02T06:26:52.497Z,98567.72
2022-08-02T06:29:23.453Z,98564.88
2022-08-02T06:31:52.883Z,98562.66
2022-08-02T06:34:20.256Z,98562.56
2022-08-02T06:36:57.796Z,98560.72
2022-08-02T06:39:32.359Z,98562.06
2022-08-02T06:42:04.094Z,98557.41
2022-08-02T06:44:49.990Z,98547.75
2022-08-02T06:47:18.942Z,98552.22
2022-08-02T06:49:52.131Z,98555.69
2022-08-02T06:52:31.307Z,98558.81
2022-08-02T06:55:04.336Z,98561.13
2022-08-02T06:57:32.508Z,98567.13
2022-08-02T07:00:02.594Z,98560.31
2022-08-02T07:02:33.319Z,98559.06
2022-08-02T07:05:00.609Z,98561.50
2022-08-02T07:07:28.339Z,98552.94
2022-08-02T07:10:00.878Z,98555.69
2022-08-02T07:12:33.948Z,98558.41
2022-08-02T07:15:05.195Z,98552.13
2022-08-02T07:17:33.066Z,98554.44
2022-08-02T07:20:00.940Z,98550.50
2022-08-02T07:22:28.515Z,98556.72
2022-08-02T07:24:58.278Z,98561.13
2022-08-02T07:27:26.029Z,98558.50
2022-08-02T07:29:54.185Z,98557.81
2022-08-02T07:32:25.506Z,98552.06
2022-08-02T07:34:54.074Z,98554.22
2022-08-02T07:37:53.655Z,98556.56
2022-08-02T07:40:20.306Z,98552.84
2022-08-02T07:42:56.456Z,98557.84
2022-08-02T07:45:27.988Z,98557.31
2022-08-02T07:47:56.854Z,98560.47
2022-08-02T07:50:24.108Z,98563.97
2022-08-02T07:52:57.159Z,98556.09
2022-08-02T07:55:39.958Z,98558.03
2022-08-02T07:58:12.587Z,98554.47
2022-08-02T08:00:44.795Z,98553.88
2022-08-02T08:03:12.643Z,98552.28
2022-08-02T08:05:40.641Z,98557.88
2022-08-02T08:08:09.413Z,98566.88
2022-08-02T08:10:40.522Z,98565.00
2022-08-02T08:13:07.612Z,98559.81
2022-08-02T08:15:34.597Z,98555.59
2022-08-02T08:18:01.546Z,98549.22
2022-08-02T08:20:28.837Z,98548.22
2022-08-02T08:22:55.779Z,98548.59
2022-08-02T08:25:22.761Z,98549.03
2022-08-02T08:27:54.213Z,98561.72
2022-08-02T08:30:23.457Z,98548.88
2022-08-02T08:32:50.548Z,98546.63
2022-08-02T08:35:17.702Z,98560.91
2022-08-02T08:37:44.885Z,98553.38
2022-08-02T08:40:12.732Z,98558.34
2022-08-02T08:42:40.174Z,98558.75
2022-08-02T08:45:09.012Z,98550.41
2022-08-02T08:47:38.809Z,98548.00
2022-08-02T08:50:25.154Z,98543.81
2022-08-02T08:53:08.690Z,98546.13
2022-08-02T08:55:39.368Z,98538.22
2022-08-02T08:58:06.984Z,98546.91
2022-08-02T09:00:36.245Z,98537.59
2022-08-02T09:03:07.159Z,98552.97
2022-08-02T09:05:39.126Z,98554.19
2022-08-02T09:08:07.615Z,98560.31
2022-08-02T09:10:37.739Z,98552.28
2022-08-02T09:13:38.534Z,98547.66
2022-08-02T09:16:11.123Z,98538.69
2022-08-02T09:18:47.595Z,98537.25
2022-08-02T09:21:17.134Z,98544.84
2022-08-02T09:23:49.502Z,98534.78
2022-08-02T09:26:23.411Z,98540.25
2022-08-02T09:28:52.364Z,98543.63
2022-08-02T09:31:28.680Z,98538.13
2022-08-02T09:33:58.461Z,98543.00
2022-08-02T09:36:28.127Z,98544.34
2022-08-02T09:38:56.865Z,98525.03
2022-08-02T09:41:29.945Z,98522.94
2022-08-02T09:44:05.131Z,98524.91
2022-08-02T09:46:39.256Z,98507.38
2022-08-02T09:49:09.817Z,98502.34
2022-08-02T09:51:51.739Z,98508.38
2022-08-02T09:54:25.197Z,98514.56
2022-08-02T09:57:01.594Z,98510.31
2022-08-02T09:59:30.831Z,98505.06
2022-08-02T10:02:02.346Z,98509.94
2022-08-02T10:04:33.728Z,98495.44
2022-08-02T10:07:05.355Z,98499.69
2022-08-02T10:09:33.075Z,98502.47
2022-08-02T10:12:01.608Z,98507.25
2022-08-02T10:14:28.782Z,98501.94
2022-08-02T10:16:58.734Z,98505.66
2022-08-02T10:20:00.319Z,98508.16
2022-08-02T10:22:15.712Z,98508.19
2022-08-02T10:24:47.570Z,98489.41
2022-08-02T10:27:18.876Z,98488.63
2022-08-02T10:29:55.631Z,98481.41
2022-08-02T10:32:38.848Z,98479.03
2022-08-02T10:35:21.725Z,98474.44
2022-08-02T10:38:03.759Z,98468.81
2022-08-02T10:41:03.668Z,98472.31
2022-08-02T10:43:37.233Z,98476.06
2022-08-02T10:46:23.109Z,98479.59
2022-08-02T10:51:56.095Z,98467.72
2022-08-02T10:54:36.551Z,98466.44
2022-08-02T10:57:15.339Z,98469.19
2022-08-02T10:59:43.387Z,98456.38
2022-08-02T11:02:11.199Z,98454.25
2022-08-02T11:04:44.785Z,98461.75
2022-08-02T11:07:20.009Z,98448.53
2022-08-02T11:09:49.333Z,98449.72
2022-08-02T11:12:18.942Z,98440.19
2022-08-02T11:15:07.570Z,98445.06
2022-08-02T11:18:14.202Z,98439.09
2022-08-02T11:20:41.758Z,98441.03
2022-08-02T11:23:44.781Z,98436.72
2022-08-02T11:26:31.400Z,98438.72
2022-08-02T11:29:03.853Z,98430.03
2022-08-02T11:31:39.799Z,98425.75
2022-08-02T11:34:09.716Z,98421.66
2022-08-02T11:36:51.093Z,98422.59
2022-08-02T11:39:21.133Z,98426.53
2022-08-02T11:41:52.354Z,98415.63
2022-08-02T11:44:20.374Z,98413.94
2022-08-02T11:47:00.563Z,98418.31
2022-08-02T11:49:28.577Z,98411.00
2022-08-02T11:52:05.228Z,98416.50
2022-08-02T11:54:35.890Z,98407.97
2022-08-02T11:57:22.218Z,98405.47
2022-08-02T11:59:55.409Z,98401.75
2022-08-02T12:02:31.547Z,98407.06
2022-08-02T12:05:05.642Z,98406.00
2022-08-02T12:07:45.559Z,98420.44
2022-08-02T12:10:18.874Z,98409.59
2022-08-02T12:12:54.241Z,98404.19
2022-08-02T12:15:38.121Z,98409.63
2022-08-02T12:18:38.820Z,98415.41
2022-08-02T12:21:22.976Z,98409.91
2022-08-02T12:23:59.438Z,98406.44
2022-08-02T12:26:28.986Z,98405.94
2022-08-02T12:28:58.965Z,98414.53
2022-08-02T12:31:57.477Z,98402.66
2022-08-02T12:34:31.233Z,98400.41
2022-08-02T12:37:04.609Z,98399.16
2022-08-02T12:39:46.040Z,98402.03
2022-08-02T12:42:15.241Z,98404.59
2022-08-02T12:44:55.057Z,98405.81
2022-08-02T12:47:22.836Z,98394.47
2022-08-02T12:50:12.237Z,98394.56
2022-08-02T12:52:39.320Z,98391.09
2022-08-02T12:55:22.279Z,98386.09
2022-08-02T12:58:00.688Z,98385.13
2022-08-02T13:00:37.329Z,98380.84
2022-08-02T13:03:11.242Z,98395.63
2022-08-02T13:05:56.543Z,98383.78
2022-08-02T13:08:25.125Z,98376.63
2022-08-02T13:10:52.122Z,98375.50
2022-08-02T13:13:19.109Z,98373.72
2022-08-02T13:15:50.310Z,98382.16
2022-08-02T13:18:18.439Z,98382.16
2022-08-02T13:20:45.928Z,98384.84
2022-08-02T13:23:21.003Z,98386.03
2022-08-02T13:25:52.726Z,98375.31
2022-08-02T13:28:20.540Z,98376.47
2022-08-02T13:30:48.553Z,98373.72
2022-08-02T13:33:16.460Z,98375.91
2022-08-02T13:35:44.489Z,98371.91
2022-08-02T13:38:12.035Z,98368.94
2022-08-02T13:41:04.288Z,98379.28
2022-08-02T13:43:53.492Z,98377.22
2022-08-02T13:46:29.054Z,98371.78
2022-08-02T13:48:57.636Z,98361.50
2022-08-02T13:51:25.115Z,98364.94
2022-08-02T13:53:52.510Z,98357.66
2022-08-02T13:56:19.948Z,98358.44
2022-08-02T13:59:56.678Z,98351.44
2022-08-02T14:01:52.261Z,98355.66
2022-08-02T14:04:19.614Z,98355.66
2022-08-02T14:06:46.983Z,98357.63
2022-08-02T14:09:16.849Z,98352.31
2022-08-02T14:11:45.601Z,98346.03
2022-08-02T14:14:16.357Z,98340.72
2022-08-02T14:16:45.329Z,98344.09
2022-08-02T14:19:16.048Z,98343.56
2022-08-02T14:21:48.564Z,98337.59
2022-08-02T14:24:17.613Z,98342.44
2022-08-02T14:26:45.993Z,98339.25
2022-08-02T14:29:16.917Z,98348.81
2022-08-02T14:31:45.078Z,98336.69
2022-08-02T14:34:15.337Z,98341.97
2022-08-02T14:36:42.327Z,98340.13
2022-08-02T14:39:10.312Z,98345.94
2022-08-02T14:41:59.324Z,98345.63
2022-08-02T14:44:25.155Z,98349.78
2022-08-02T14:46:52.870Z,98340.88
2022-08-02T14:49:25.388Z,98332.22
2022-08-02T14:51:54.905Z,98342.47
2022-08-02T14:54:27.686Z,98332.00
2022-08-02T14:57:02.150Z,98323.59
2022-08-02T14:59:29.971Z,98332.44
2022-08-02T15:01:57.945Z,98332.22
2022-08-02T15:04:25.905Z,98324.44
2022-08-02T15:06:53.754Z,98330.47
2022-08-02T15:09:21.658Z,98326.72
2022-08-02T15:11:49.847Z,98326.59
2022-08-02T15:14:22.004Z,98315.22
2022-08-02T15:16:58.839Z,98321.53
2022-08-02T15:19:44.928Z,98311.72
2022-08-02T15:22:16.916Z,98314.91
2022-08-02T15:24:47.392Z,98320.50
2022-08-02T15:27:15.455Z,98317.44
2022-08-02T15:29:46.895Z,98310.06
2022-08-02T15:32:14.835Z,98317.25
2022-08-02T15:34:42.508Z,98313.06
2022-08-02T15:37:09.976Z,98305.44
2022-08-02T15:39:37.448Z,98307.44
2022-08-02T15:42:05.137Z,98306.66
2022-08-02T15:44:32.528Z,98304.91
2022-08-02T15:46:59.994Z,98309.78
2022-08-02T15:49:27.439Z,98313.59
2022-08-02T15:51:55.378Z,98307.63
2022-08-02T15:54:22.864Z,98302.25
2022-08-02T15:56:50.301Z,98296.25
2022-08-02T15:59:17.795Z,98305.03
2022-08-02T16:01:47.983Z,98301.59
2022-08-02T16:04:16.567Z,98299.34
2022-08-02T16:06:44.317Z,98300.75
2022-08-02T16:09:11.883Z,98311.03
2022-08-02T16:11:39.384Z,98309.56
2022-08-02T16:14:07.067Z,98313.06
2022-08-02T16:16:36.293Z,98316.81
2022-08-02T16:19:46.729Z,98308.06
2022-08-02T16:21:52.883Z,98306.47
2022-08-02T16:24:20.506Z,98301.09
2022-08-02T16:26:48.092Z,98300.94
2022-08-02T16:29:19.210Z,98297.28
2022-08-02T16:31:50.083Z,98291.16
2022-08-02T16:34:18.145Z,98297.59
2022-08-02T16:36:46.082Z,98295.31
2022-08-02T16:39:13.536Z,98296.03
2022-08-02T16:41:50.888Z,98295.28
2022-08-02T16:44:29.210Z,98295.59
2022-08-02T16:47:01.147Z,98290.47
2022-08-02T16:50:05.217Z,98286.97
2022-08-02T16:52:19.118Z,98287.34
2022-08-02T16:54:49.567Z,98280.47
2022-08-02T16:57:19.648Z,98283.97
2022-08-02T16:59:57.821Z,98284.22
2022-08-02T17:02:26.842Z,98286.09
2022-08-02T17:04:55.606Z,98285.16
2022-08-02T17:08:15.454Z,98285.00
2022-08-02T17:10:12.289Z,98286.47
2022-08-02T17:12:40.191Z,98284.50
2022-08-02T17:16:08.385Z,98289.28
2022-08-02T17:17:56.519Z,98288.78
2022-08-02T17:20:24.721Z,98289.88
2022-08-02T17:22:52.844Z,98283.19
2022-08-02T17:25:21.052Z,98292.44
2022-08-02T17:27:55.678Z,98287.28
2022-08-02T17:30:26.997Z,98283.97
2022-08-02T17:32:57.668Z,98287.34
2022-08-02T17:35:43.447Z,98286.19
2022-08-02T17:38:17.665Z,98293.09
2022-08-02T17:40:45.637Z,98295.22
2022-08-02T17:43:14.680Z,98293.72
2022-08-02T17:46:02.032Z,98290.56
2022-08-02T17:48:50.010Z,98295.00
2022-08-02T17:52:15.142Z,98291.84
2022-08-02T17:54:05.167Z,98294.91
2022-08-02T17:56:33.762Z,98300.47
2022-08-02T17:59:20.831Z,98298.94
2022-08-02T18:01:53.315Z,98299.34
2022-08-02T18:07:11.366Z,98300.66
2022-08-02T18:09:44.489Z,98304.22
2022-08-02T18:12:14.958Z,98305.03
2022-08-02T18:14:46.167Z,98306.91
2022-08-02T18:17:16.572Z,98299.69
2022-08-02T18:19:55.460Z,98299.06
2022-08-02T18:22:24.897Z,98300.41
2022-08-02T18:24:54.042Z,98305.66
2022-08-02T18:27:22.725Z,98295.84
2022-08-02T18:30:00.216Z,98301.22
2022-08-02T18:33:55.641Z,98303.84
2022-08-02T18:35:19.631Z,98299.81
2022-08-02T18:37:56.755Z,98303.47
2022-08-02T18:40:25.338Z,98316.06
2022-08-02T18:42:53.673Z,98312.59
2022-08-02T18:45:21.951Z,98307.78
2022-08-02T18:47:51.335Z,98314.78
2022-08-02T18:50:19.934Z,98318.78
2022-08-02T18:52:50.267Z,98321.19
2022-08-02T18:55:59.722Z,98324.41
2022-08-02T18:58:19.285Z,98320.19
2022-08-02T19:00:51.730Z,98324.50
2022-08-02T19:03:19.487Z,98321.47
2022-08-02T19:05:53.425Z,98325.34
2022-08-02T19:08:25.577Z,98327.38
2022-08-02T19:10:55.225Z,98334.06
2022-08-02T19:13:24.306Z,98324.28
2022-08-02T19:15:52.354Z,98325.75
2022-08-02T19:18:19.502Z,98326.19
2022-08-02T19:20:57.171Z,98334.13
2022-08-02T19:23:29.562Z,98327.94
2022-08-02T19:25:56.988Z,98331.09
2022-08-02T19:28:26.115Z,98330.88
2022-08-02T19:30:55.172Z,98331.69
2022-08-02T19:33:54.789Z,98333.16
2022-08-02T19:36:09.754Z,98336.25
2022-08-02T19:38:43.781Z,98336.47
2022-08-02T19:41:13.583Z,98340.41
2022-08-02T19:44:26.415Z,98341.66
2022-08-02T19:46:29.844Z,98343.88
2022-08-02T19:48:57.182Z,98340.13
2022-08-02T19:51:54.491Z,98346.31
2022-08-02T19:54:12.176Z,98349.63
2022-08-02T19:56:40.377Z,98346.28
2022-08-02T19:59:12.933Z,98352.88
2022-08-02T20:01:46.355Z,98347.75
2022-08-02T20:04:22.845Z,98346.88
2022-08-02T20:06:50.757Z,98355.13
2022-08-02T20:09:22.545Z,98354.16
2022-08-02T20:11:54.602Z,98353.50
2022-08-02T20:14:26.578Z,98350.69
2022-08-02T20:16:58.542Z,98344.38
2022-08-02T20:19:29.013Z,98356.00
2022-08-02T20:22:00.099Z,98353.84
2022-08-02T20:24:28.282Z,98361.19
2022-08-02T20:26:59.384Z,98359.66
2022-08-02T20:29:42.750Z,98362.16
2022-08-02T20:32:11.889Z,98352.38
2022-08-02T20:34:38.935Z,98356.38
2022-08-02T20:37:56.203Z,98352.13
2022-08-02T20:39:53.778Z,98350.06
2022-08-02T20:45:08.909Z,98351.19
2022-08-02T20:47:40.353Z,98354.72
2022-08-02T20:50:30.480Z,98366.88
2022-08-02T20:53:02.598Z,98366.22
2022-08-02T20:55:31.845Z,98361.28
2022-08-02T20:58:04.338Z,98358.94
2022-08-02T21:00:32.059Z,98364.44
2022-08-02T21:03:00.681Z,98355.50
2022-08-02T21:05:54.112Z,98364.44
2022-08-02T21:08:15.847Z,98365.63
2022-08-02T21:10:52.171Z,98366.00
2022-08-02T21:13:23.065Z,98372.97
2022-08-02T21:15:52.102Z,98364.78
2022-08-02T21:18:24.025Z,98365.16
2022-08-02T21:21:04.992Z,98366.56
2022-08-02T21:23:36.375Z,98371.88
2022-08-02T21:26:09.058Z,98362.88
2022-08-02T21:28:44.987Z,98372.69
2022-08-02T21:31:15.578Z,98366.34
2022-08-02T21:33:58.115Z,98362.50
2022-08-02T21:36:32.647Z,98366.09
2022-08-02T21:39:05.012Z,98364.22
2022-08-02T21:41:46.514Z,98364.00
2022-08-02T21:44:19.669Z,98360.50
2022-08-02T21:46:52.438Z,98359.16
2022-08-02T21:49:40.983Z,98357.81
2022-08-02T21:52:08.687Z,98363.34
2022-08-02T21:54:35.866Z,98368.19
2022-08-02T21:57:07.800Z,98356.78
2022-08-02T21:59:47.226Z,98370.38
2022-08-02T22:02:16.549Z,98378.75
2022-08-02T22:04:47.951Z,98366.56
2022-08-02T22:07:23.872Z,98376.81
2022-08-02T22:09:52.837Z,98375.03
2022-08-02T22:12:21.928Z,98377.19
2022-08-02T22:14:55.751Z,98375.22
2022-08-02T22:17:51.542Z,98383.13
2022-08-02T22:20:19.975Z,98380.50
2022-08-02T22:23:02.528Z,98380.66
2022-08-02T22:28:38.824Z,98382.34
2022-08-02T22:31:05.535Z,98384.72
2022-08-02T22:34:00.241Z,98390.59
2022-08-02T22:36:38.760Z,98391.94
2022-08-02T22:39:19.141Z,98394.69
2022-08-02T22:42:05.880Z,98399.13
2022-08-02T22:44:34.758Z,98391.50
2022-08-02T22:47:07.070Z,98395.72
2022-08-02T22:49:51.691Z,98400.03
2022-08-02T22:52:22.036Z,98399.69
2022-08-02T22:54:50.884Z,98403.13
2022-08-02T22:57:30.131Z,98403.91
2022-08-02T22:58:42.981Z,98299.34
2022-08-02T22:58:56.096Z,98350.59
2022-08-02T23:00:00.138Z,98396.81
2022-08-02T23:02:27.574Z,98404.72
2022-08-02T23:04:54.797Z,98397.44
2022-08-02T23:07:21.790Z,98400.81
2022-08-02T23:09:48.794Z,98401.66
2022-08-02T23:12:19.241Z,98398.66
2022-08-02T23:14:47.339Z,98402.50
2022-08-02T23:17:32.965Z,98407.19
2022-08-02T23:19:59.968Z,98405.50
2022-08-02T23:22:29.688Z,98406.66
2022-08-02T23:25:01.126Z,98404.81
2022-08-02T23:27:29.836Z,98406.19
2022-08-02T23:29:57.292Z,98408.50
2022-08-02T23:32:25.490Z,98410.66
2022-08-02T23:34:54.305Z,98412.66
2022-08-02T23:37:22.517Z,98411.16
2022-08-02T23:39:50.503Z,98414.84
2022-08-02T23:42:17.723Z,98412.84
2022-08-02T23:44:44.908Z,98408.81
2022-08-02T23:47:12.038Z,98407.34
2022-08-02T23:49:39.101Z,98405.34
2022-08-02T23:52:06.159Z,98416.03
2022-08-02T23:54:33.178Z,98406.81
2022-08-02T23:57:00.298Z,98399.63
2022-08-02T23:59:47.323Z,98398.00
